»·PEaware :: SWA1142 KPDX-KSLC

SWA1142 :: KPDX-KSLC

FLIGHT INFORMATION

Flight Status: Arrived
Operator:
Southwest Airlines
More flights by this operator :: More flights under this callsign
Pilot: Anonymous 5456 (5456)
Aircraft: BOEING 737-800
(B738)
More flights by this aircraft type
Origin: KPDX Portland Intl
United States
Destination: KSLC Salt Lake City Intl
United States
More flights between these airports :: More routes between these airports
Route: WHAMY4 IMB J15 BOI BYI SKEES5
File this flight plan on PilotEdge
Remarks:
Altitude:
(Current/Filed)
35,000ft
Speed:
(Current/Filed)
450kts
Departed: 31-Oct-17 01:39 PM
Arrived: 31-Oct-17 03:14 PM
Distance/Time
Traveled:
546nm/1:34
Distance/Time
To Go:
Arrived

Flight Plot

Page will automatically refresh every two minutes.

Flight plan parsing failed; only flown route is shown


Map Options




Map Legend


Flown Route
Filed Route
Departure Airport
Arrival Airport
Navaid (VOR, NDB)
Fix

Horizontal Profiles

Position Reports

Time Latitude Longitude Heading Altitude Ground
Speed
31-Oct-17 13:20 45.589206 -122.598494 19 36ft 0kts
31-Oct-17 13:21 45.589206 -122.598494 19 36ft 0kts
31-Oct-17 13:22 45.589206 -122.598494 19 36ft 0kts
31-Oct-17 13:23 45.589206 -122.598494 19 36ft 0kts
31-Oct-17 13:24 45.589206 -122.598494 19 36ft 0kts
31-Oct-17 13:25 45.589206 -122.598494 19 36ft 0kts
31-Oct-17 13:26 45.589206 -122.598494 19 36ft 0kts
31-Oct-17 13:27 45.589206 -122.598494 19 36ft 0kts
31-Oct-17 13:28 45.589206 -122.598494 19 36ft 0kts
31-Oct-17 13:29 45.589206 -122.598494 19 36ft 0kts
31-Oct-17 13:30 45.589206 -122.598494 19 36ft 0kts
31-Oct-17 13:31 45.589206 -122.598494 19 36ft 0kts
31-Oct-17 13:32 45.589206 -122.598494 19 36ft 0kts
31-Oct-17 13:33 45.589206 -122.598494 19 36ft 0kts
31-Oct-17 13:34 45.589206 -122.598494 19 36ft 0kts
31-Oct-17 13:35 45.588872 -122.598663 19 36ft 2kts
31-Oct-17 13:36 45.588652 -122.598742 357 36ft 0kts
31-Oct-17 13:37 45.588583 -122.598782 42 36ft 0kts
31-Oct-17 13:38 45.588583 -122.598782 42 36ft 0kts
31-Oct-17 13:39 45.588878 -122.598937 283 36ft 5kts
31-Oct-17 13:40 45.589789 -122.601708 352 36ft 8kts
31-Oct-17 13:41 45.591576 -122.598941 51 36ft 7kts
31-Oct-17 13:42 45.593838 -122.597899 357 36ft 10kts
31-Oct-17 13:43 45.594848 -122.595700 115 36ft 14kts
31-Oct-17 13:44 45.579053 -122.554163 106 848ft 181kts
31-Oct-17 13:45 45.567699 -122.471535 101 2919ft 240kts
31-Oct-17 13:46 45.550819 -122.378529 103 5567ft 259kts
31-Oct-17 13:47 45.511654 -122.297856 146 8295ft 283kts
31-Oct-17 13:48 45.446942 -122.223278 135 10595ft 322kts
31-Oct-17 13:49 45.379741 -122.137671 134 13466ft 337kts
31-Oct-17 13:50 45.309474 -122.048532 133 16061ft 354kts
31-Oct-17 13:51 45.244889 -121.945495 105 18459ft 353kts
31-Oct-17 13:52 45.209823 -121.813344 104 20819ft 366kts
31-Oct-17 13:53 45.173027 -121.679229 104 22931ft 378kts
31-Oct-17 13:54 45.134393 -121.538486 104 24887ft 390kts
31-Oct-17 13:55 45.095099 -121.394767 103 26791ft 398kts
31-Oct-17 13:56 45.056736 -121.253872 103 28825ft 393kts
31-Oct-17 13:57 45.017985 -121.110806 103 30635ft 389kts
31-Oct-17 13:58 44.979871 -120.969422 102 32175ft 385kts
31-Oct-17 13:59 44.942224 -120.829135 102 33516ft 382kts
31-Oct-17 14:00 44.904934 -120.689540 102 34730ft 378kts
31-Oct-17 14:01 44.868825 -120.553596 102 35043ft 389kts
31-Oct-17 14:02 44.842195 -120.453042 102 35054ft 401kts
31-Oct-17 14:03 44.806034 -120.316040 103 35056ft 418kts
31-Oct-17 14:04 44.771743 -120.185587 103 35057ft 434kts
31-Oct-17 14:05 44.729539 -120.024268 103 35045ft 442kts
31-Oct-17 14:06 44.687640 -119.863166 102 35044ft 441kts
31-Oct-17 14:07 44.645760 -119.701584 103 35043ft 442kts
31-Oct-17 14:08 44.595736 -119.542933 107 35044ft 445kts
31-Oct-17 14:09 44.545509 -119.388444 106 35044ft 445kts
31-Oct-17 14:10 44.496677 -119.237778 107 35049ft 445kts
31-Oct-17 14:11 44.445946 -119.080569 107 35049ft 444kts
31-Oct-17 14:12 44.395460 -118.923415 106 35049ft 444kts
31-Oct-17 14:13 44.345170 -118.766189 106 35049ft 444kts
31-Oct-17 14:14 44.295280 -118.609534 106 35049ft 443kts
31-Oct-17 14:15 44.245544 -118.452671 106 35049ft 442kts
31-Oct-17 14:16 44.199445 -118.306672 106 35029ft 443kts
31-Oct-17 14:17 44.153963 -118.162067 106 35040ft 443kts
31-Oct-17 14:18 44.105068 -118.005909 106 35026ft 442kts
31-Oct-17 14:19 44.056574 -117.850343 106 35053ft 441kts
31-Oct-17 14:20 44.008041 -117.693963 105 35053ft 441kts
31-Oct-17 14:21 43.959847 -117.538082 104 35035ft 445kts
31-Oct-17 14:22 43.913712 -117.387947 104 35071ft 465kts
31-Oct-17 14:23 43.866942 -117.235442 105 35046ft 447kts
31-Oct-17 14:24 43.819159 -117.078585 104 35053ft 451kts
31-Oct-17 14:25 43.769858 -116.916189 104 35046ft 465kts
31-Oct-17 14:26 43.720031 -116.751353 104 35042ft 463kts
31-Oct-17 14:27 43.671095 -116.588597 103 35044ft 463kts
31-Oct-17 14:28 43.669847 -116.584437 103 35043ft 463kts
31-Oct-17 14:29 43.578723 -116.279238 104 35046ft 462kts
31-Oct-17 14:30 43.523500 -116.119147 112 35055ft 471kts
31-Oct-17 14:31 43.457205 -115.964726 112 35049ft 469kts
31-Oct-17 14:32 43.391352 -115.810305 112 35049ft 469kts
31-Oct-17 14:33 43.326930 -115.658944 110 34980ft 447kts
31-Oct-17 14:34 43.263422 -115.508770 111 35037ft 466kts
31-Oct-17 14:35 43.197923 -115.353789 111 35025ft 472kts
31-Oct-17 14:36 43.134193 -115.202365 111 35028ft 472kts
31-Oct-17 14:37 43.069384 -115.047931 111 35002ft 471kts
31-Oct-17 14:38 43.004641 -114.893151 111 35003ft 469kts
31-Oct-17 14:39 42.940532 -114.739396 111 35030ft 468kts
31-Oct-17 14:40 42.878075 -114.589116 110 35011ft 466kts
31-Oct-17 14:41 42.814669 -114.436044 110 35013ft 466kts
31-Oct-17 14:42 42.756537 -114.295329 110 35006ft 449kts
31-Oct-17 14:43 42.694707 -114.144994 111 35001ft 464kts
31-Oct-17 14:44 42.631985 -113.992219 110 34991ft 463kts
31-Oct-17 14:45 42.565877 -113.841851 125 34988ft 478kts
31-Oct-17 14:46 42.469071 -113.717006 128 34994ft 480kts
31-Oct-17 14:47 42.374536 -113.591095 127 34994ft 480kts
31-Oct-17 14:48 42.280104 -113.464923 127 34995ft 478kts
31-Oct-17 14:49 42.185972 -113.341707 128 34970ft 462kts
31-Oct-17 14:50 42.095115 -113.223019 129 33533ft 483kts
31-Oct-17 14:51 42.001531 -113.101002 129 31368ft 457kts
31-Oct-17 14:52 41.915562 -112.988678 129 29091ft 414kts
31-Oct-17 14:53 41.867997 -112.926341 130 27860ft 416kts
31-Oct-17 14:54 41.809845 -112.850172 130 26362ft 420kts
31-Oct-17 14:55 41.726924 -112.741489 131 24050ft 419kts
31-Oct-17 14:56 41.646458 -112.637093 132 21058ft 389kts
31-Oct-17 14:57 41.572658 -112.542208 134 18044ft 356kts
31-Oct-17 14:58 41.513803 -112.445776 125 17395ft 339kts
31-Oct-17 14:59 41.423770 -112.394105 158 17009ft 368kts
31-Oct-17 15:00 41.332782 -112.337094 153 15295ft 366kts
31-Oct-17 15:01 41.245175 -112.275713 153 13268ft 351kts
31-Oct-17 15:02 41.164454 -112.214972 151 12522ft 341kts
31-Oct-17 15:03 41.083208 -112.153097 154 12009ft 333kts
31-Oct-17 15:04 40.996341 -112.129879 172 11494ft 320kts
31-Oct-17 15:05 40.909150 -112.111312 171 11008ft 325kts
31-Oct-17 15:06 40.829936 -112.101129 175 10993ft 327kts
31-Oct-17 15:07 40.740034 -112.090753 175 10992ft 327kts
31-Oct-17 15:08 40.665078 -112.082014 175 10993ft 327kts
31-Oct-17 15:09 40.579596 -112.071982 176 10693ft 286kts
31-Oct-17 15:10 40.497114 -112.045457 128 8975ft 249kts
31-Oct-17 15:11 40.496744 -111.985726 40 9143ft 202kts
31-Oct-17 15:12 40.540135 -111.956589 20 8953ft 167kts
31-Oct-17 15:13 40.582025 -111.951401 353 8049ft 148kts
31-Oct-17 15:14 40.622344 -111.955631 354 7301ft 154kts
31-Oct-17 15:15 40.664538 -111.960344 354 6435ft 152kts
31-Oct-17 15:16 40.706403 -111.965193 354 5601ft 150kts
31-Oct-17 15:17 40.745063 -111.969681 354 4849ft 148kts
31-Oct-17 15:18 40.783151 -111.974146 353 4234ft 108kts
31-Oct-17 15:19 40.791963 -111.976967 225 4234ft 9kts
31-Oct-17 15:20 40.789191 -111.976975 175 4234ft 12kts
31-Oct-17 15:21 40.786211 -111.977386 275 4234ft 9kts
31-Oct-17 15:22 40.786725 -111.978251 311 4234ft 0kts

Navigation Log

Ident Type
Flight plan parsing failed, navigation log unavailable